Time;durP1;ratioP1;P1;durP2;ratioP2;P2;SDS_P1;SDS_P2;PMS_P1;PMS_P2;Temp;Humidity;BMP_temperature;BMP_pressure;BME280_temperature;BME280_humidity;BME280_pressure;Samples;Min_cycle;Max_cycle;Signal;HPM_P1;HPM_P2
2022/05/13 00:01:38;;;;;;;1.45;1.05;;;19.30;54.50;;;;;;5073502;28;20451;-73
2022/05/13 00:04:05;;;;;;;1.15;0.93;;;18.50;54.50;;;;;;5090861;28;20091;-73
2022/05/13 00:06:32;;;;;;;3.63;1.10;;;19.30;50.50;;;;;;5090730;28;20052;-73
2022/05/13 00:08:58;;;;;;;2.03;0.98;;;19.80;55.00;;;;;;5090525;28;20056;-73
2022/05/13 00:11:25;;;;;;;1.83;0.93;;;19.30;55.00;;;;;;5090305;28;20047;-73
2022/05/13 00:13:52;;;;;;;1.92;1.00;;;19.30;50.60;;;;;;5090430;28;20060;-73
2022/05/13 00:16:19;;;;;;;1.00;0.88;;;19.00;54.80;;;;;;5088746;28;20139;-73
2022/05/13 00:18:47;;;;;;;1.30;0.98;;;19.30;54.90;;;;;;5071594;28;20140;-74
2022/05/13 00:21:14;;;;;;;1.40;1.00;;;19.20;50.50;;;;;;5070094;28;20086;-74
2022/05/13 00:23:40;;;;;;;1.60;0.93;;;19.30;50.60;;;;;;5070260;28;20055;-73
2022/05/13 00:26:07;;;;;;;1.38;0.90;;;19.30;55.30;;;;;;5072742;28;20135;-73
2022/05/13 00:28:34;;;;;;;1.48;1.00;;;19.20;54.80;;;;;;5074053;28;20143;-73
2022/05/13 00:31:04;;;;;;;0.80;0.80;;;19.30;54.60;;;;;;5073931;28;20091;-72
2022/05/13 00:33:31;;;;;;;1.25;0.90;;;19.30;55.10;;;;;;5075136;28;20070;-73
2022/05/13 00:35:59;;;;;;;1.63;1.10;;;19.20;56.00;;;;;;5073999;28;20075;-73
2022/05/13 00:38:26;;;;;;;0.85;0.80;;;18.50;56.10;;;;;;5073713;28;20060;-73
2022/05/13 00:40:53;;;;;;;0.82;0.80;;;19.30;54.50;;;;;;5073901;28;20052;-73
2022/05/13 00:43:38;;;;;;;1.15;0.90;;;19.50;55.40;;;;;;5073717;28;20044;-73
2022/05/13 00:46:05;;;;;;;1.08;0.82;;;19.10;54.70;;;;;;5074062;28;20136;-73
2022/05/13 00:48:32;;;;;;;0.88;0.80;;;18.80;55.20;;;;;;5074784;28;20051;-73
2022/05/13 00:51:00;;;;;;;2.38;0.95;;;18.50;54.40;;;;;;5082225;28;20058;-73
2022/05/13 00:53:27;;;;;;;1.25;0.90;;;19.20;50.70;;;;;;5093812;28;20048;-73
2022/05/13 00:55:53;;;;;;;1.83;1.10;;;19.10;50.60;;;;;;5094026;28;20134;-72
2022/05/13 00:58:20;;;;;;;1.77;0.80;;;18.90;55.90;;;;;;5076804;28;20508;-72
2022/05/13 01:00:47;;;;;;;1.85;0.90;;;19.10;50.70;;;;;;5093775;28;20056;-74
2022/05/13 01:03:14;;;;;;;0.95;0.70;;;18.90;55.00;;;;;;5093902;28;20052;-73
2022/05/13 01:05:41;;;;;;;3.03;1.10;;;19.50;55.10;;;;;;5092275;28;20052;-73
2022/05/13 01:08:09;;;;;;;1.83;0.98;;;19.40;55.00;;;;;;5093853;28;20051;-73
2022/05/13 01:10:36;;;;;;;1.80;0.90;;;19.30;55.20;;;;;;5093105;28;20047;-73
2022/05/13 01:13:06;;;;;;;1.27;1.02;;;19.00;55.10;;;;;;5093583;28;20524;-74
2022/05/13 01:15:34;;;;;;;2.15;1.08;;;19.00;55.20;;;;;;5093449;28;20055;-73
2022/05/13 01:18:06;;;;;;;2.58;1.00;;;19.10;50.70;;;;;;5093223;28;20059;-73
2022/05/13 01:20:33;;;;;;;0.98;0.80;;;19.20;54.90;;;;;;5092077;28;20461;-73
2022/05/13 01:23:02;;;;;;;1.27;0.88;;;19.10;50.70;;;;;;5073270;28;20561;-73
2022/05/13 01:25:33;;;;;;;1.77;0.98;;;19.20;54.50;;;;;;5073316;28;20055;-73
2022/05/13 01:28:07;;;;;;;0.93;0.90;;;19.00;50.70;;;;;;5073113;28;20056;-73
2022/05/13 01:30:34;;;;;;;1.07;0.90;;;19.90;55.30;;;;;;5106733;28;20079;-73
2022/05/13 01:33:01;;;;;;;1.60;0.90;;;19.10;50.70;;;;;;5072830;28;20750;-73
2022/05/13 01:35:27;;;;;;;2.00;1.00;;;19.10;56.70;;;;;;5073201;28;20048;-73
2022/05/13 01:37:55;;;;;;;1.25;1.00;;;19.10;55.60;;;;;;5072877;28;20048;-73
2022/05/13 01:40:23;;;;;;;1.55;0.93;;;19.10;50.70;;;;;;5072491;28;20493;-73
2022/05/13 01:42:50;;;;;;;1.55;0.88;;;19.00;54.90;;;;;;5072953;28;20048;-73
2022/05/13 01:45:17;;;;;;;1.20;0.80;;;18.90;55.00;;;;;;5073513;28;20067;-73
2022/05/13 01:47:43;;;;;;;1.23;0.90;;;18.30;55.80;;;;;;5072875;28;20056;-73
2022/05/13 01:50:11;;;;;;;1.48;0.90;;;19.10;54.90;;;;;;5072529;28;20379;-74
2022/05/13 01:52:38;;;;;;;1.33;1.05;;;18.80;56.40;;;;;;5107810;28;20531;-73
2022/05/13 01:55:05;;;;;;;0.80;0.80;;;19.00;50.80;;;;;;5072353;28;20063;-73
2022/05/13 01:57:33;;;;;;;1.95;1.00;;;18.70;54.70;;;;;;5072143;28;20049;-73
2022/05/13 02:00:01;;;;;;;1.73;1.08;;;19.00;54.90;;;;;;5072311;28;20060;-73
2022/05/13 02:02:28;;;;;;;1.77;0.85;;;18.40;55.00;;;;;;5072638;28;20477;-73
2022/05/13 02:04:54;;;;;;;0.70;0.70;;;19.10;55.00;;;;;;5106512;28;20063;-74
2022/05/13 02:07:20;;;;;;;2.03;1.10;;;19.30;55.50;;;;;;5072149;28;20135;-73
2022/05/13 02:09:47;;;;;;;0.90;0.80;;;18.50;55.00;;;;;;5073356;28;20414;-73
2022/05/13 02:12:14;;;;;;;1.42;0.90;;;18.90;55.30;;;;;;5071996;28;20052;-73
2022/05/13 02:14:42;;;;;;;1.40;0.98;;;19.40;55.50;;;;;;5072396;28;20057;-73
2022/05/13 02:17:08;;;;;;;2.65;1.10;;;18.90;54.80;;;;;;5072268;28;20063;-73
2022/05/13 02:19:35;;;;;;;1.92;1.00;;;19.00;55.40;;;;;;5071978;28;20054;-74
2022/05/13 02:22:02;;;;;;;1.50;0.75;;;19.00;55.20;;;;;;5072085;28;20150;-73
2022/05/13 02:24:28;;;;;;;1.40;1.00;;;19.80;56.50;;;;;;5072145;28;20071;-72
2022/05/13 02:26:55;;;;;;;1.45;1.10;;;19.00;54.90;;;;;;5073182;28;20139;-73
2022/05/13 02:29:22;;;;;;;0.80;0.80;;;18.90;55.20;;;;;;5071829;28;20142;-73
2022/05/13 02:31:50;;;;;;;1.02;0.70;;;18.80;55.30;;;;;;5071517;28;20511;-73
2022/05/13 02:34:16;;;;;;;1.27;1.10;;;19.10;55.20;;;;;;5071541;28;20055;-72
2022/05/13 02:36:43;;;;;;;1.70;1.20;;;18.90;57.00;;;;;;5071930;28;20058;-73
2022/05/13 02:39:10;;;;;;;1.45;0.90;;;19.60;55.20;;;;;;5071537;28;20515;-73
2022/05/13 02:41:36;;;;;;;2.15;1.10;;;18.70;55.20;;;;;;5072459;28;20055;-73
2022/05/13 02:44:03;;;;;;;1.63;1.00;;;18.90;56.30;;;;;;5071649;28;20048;-73
2022/05/13 02:46:32;;;;;;;1.45;1.05;;;18.90;50.80;;;;;;5105692;28;20135;-73
2022/05/13 02:49:00;;;;;;;1.73;0.80;;;18.80;54.90;;;;;;5071581;28;20076;-73
2022/05/13 02:51:27;;;;;;;1.40;1.00;;;18.90;55.40;;;;;;5071079;28;20062;-72
2022/05/13 02:53:53;;;;;;;1.83;1.00;;;18.90;55.40;;;;;;5071397;28;20409;-73
2022/05/13 02:56:20;;;;;;;2.00;1.00;;;18.90;50.80;;;;;;5071380;28;20048;-73
2022/05/13 02:58:47;;;;;;;3.03;1.25;;;18.80;55.90;;;;;;5072265;28;20135;-73
2022/05/13 03:01:15;;;;;;;1.70;1.00;;;19.00;55.30;;;;;;5089876;28;20535;-73
2022/05/13 03:03:43;;;;;;;1.63;0.90;;;19.00;56.30;;;;;;5091636;28;20050;-73
2022/05/13 03:06:11;;;;;;;1.10;0.90;;;18.80;56.90;;;;;;5091327;28;20666;-73
2022/05/13 03:08:38;;;;;;;1.45;1.00;;;17.60;56.30;;;;;;5091503;28;20060;-73
2022/05/13 03:11:05;;;;;;;1.60;1.00;;;19.50;55.80;;;;;;5091320;28;20568;-73
2022/05/13 03:13:32;;;;;;;1.70;1.10;;;18.30;55.30;;;;;;5091102;28;20400;-73
2022/05/13 03:16:02;;;;;;;2.58;0.90;;;19.10;55.80;;;;;;5091386;28;20059;-73
2022/05/13 03:18:29;;;;;;;2.15;0.90;;;19.00;55.70;;;;;;5091300;28;20058;-73
2022/05/13 03:20:56;;;;;;;1.02;0.90;;;19.00;55.20;;;;;;5090918;28;20520;-73
2022/05/13 03:23:24;;;;;;;2.05;0.93;;;19.50;55.90;;;;;;5091255;28;20074;-74
2022/05/13 03:25:51;;;;;;;2.47;1.10;;;18.90;55.60;;;;;;5091292;28;20160;-74
2022/05/13 03:28:17;;;;;;;1.85;1.13;;;18.80;55.20;;;;;;5091083;28;20052;-73
2022/05/13 03:30:44;;;;;;;1.85;1.10;;;18.80;56.00;;;;;;5089388;28;20047;-73
2022/05/13 03:33:11;;;;;;;1.67;0.90;;;18.20;55.30;;;;;;5090930;28;20488;-73
2022/05/13 03:35:39;;;;;;;2.05;1.20;;;18.90;55.00;;;;;;5090647;28;20055;-73
2022/05/13 03:38:06;;;;;;;1.70;0.90;;;18.70;53.70;;;;;;5091078;28;20493;-73
2022/05/13 03:40:35;;;;;;;1.45;0.95;;;19.50;57.20;;;;;;5090758;28;20051;-73
2022/05/13 03:43:02;;;;;;;1.30;0.90;;;19.20;56.10;;;;;;5090669;28;20048;-73
2022/05/13 03:45:32;;;;;;;1.50;1.10;;;18.80;55.30;;;;;;5090941;28;20056;-74
2022/05/13 03:47:59;;;;;;;1.70;0.90;;;18.80;55.80;;;;;;5089216;28;20056;-72
2022/05/13 03:50:26;;;;;;;1.65;1.10;;;18.70;50.90;;;;;;5090684;28;20070;-73
2022/05/13 03:52:53;;;;;;;1.77;1.17;;;19.00;55.60;;;;;;5090818;28;20048;-72
2022/05/13 03:55:20;;;;;;;1.23;1.10;;;;;;;;;;5090692;28;20058;-73
2022/05/13 03:57:48;;;;;;;1.90;1.00;;;18.60;55.60;;;;;;5090395;28;20066;-73
2022/05/13 04:00:15;;;;;;;1.15;0.90;;;18.80;56.50;;;;;;5078133;28;20057;-72
2022/05/13 04:02:42;;;;;;;1.27;0.95;;;18.80;55.60;;;;;;5070504;28;20060;-73
2022/05/13 04:10:38;;;;;;;2.13;1.20;;;19.10;55.80;;;;;;5104203;28;20056;-73
2022/05/13 04:16:06;;;;;;;1.25;0.88;;;18.60;55.50;;;;;;5124959;28;20139;-73
2022/05/13 04:18:33;;;;;;;1.73;1.13;;;18.70;51.00;;;;;;5090294;28;20512;-73
2022/05/13 04:20:59;;;;;;;3.38;1.27;;;18.80;55.70;;;;;;5090498;28;20403;-73
2022/05/13 04:23:27;;;;;;;1.08;0.88;;;18.50;55.40;;;;;;5090516;28;20055;-74
2022/05/13 04:25:53;;;;;;;1.67;0.90;;;18.90;56.00;;;;;;5090371;28;20488;-73
2022/05/13 04:28:21;;;;;;;2.22;1.02;;;18.60;51.00;;;;;;5090619;28;20110;-73
2022/05/13 04:30:48;;;;;;;1.38;0.95;;;18.60;51.00;;;;;;5071168;28;20057;-73
2022/05/13 04:33:17;;;;;;;1.42;0.95;;;18.40;55.70;;;;;;5070021;28;20059;-73
2022/05/13 04:35:44;;;;;;;0.80;0.80;;;18.70;55.70;;;;;;5069966;28;20059;-73
2022/05/13 04:38:11;;;;;;;1.45;1.00;;;;;;;;;;5070390;28;20062;-73
2022/05/13 04:40:38;;;;;;;1.13;0.80;;;18.50;55.50;;;;;;5069897;28;20155;-73
2022/05/13 04:43:06;;;;;;;1.48;1.10;;;18.50;55.90;;;;;;5070097;28;20062;-73
2022/05/13 04:45:34;;;;;;;1.50;1.10;;;18.70;55.40;;;;;;5069969;28;20040;-74
2022/05/13 04:48:17;;;;;;;1.58;1.08;;;18.60;51.10;;;;;;5071490;28;20048;-73
2022/05/13 04:50:46;;;;;;;2.55;1.10;;;18.60;55.90;;;;;;5069453;28;20071;-73
2022/05/13 04:53:13;;;;;;;1.48;1.00;;;18.60;51.10;;;;;;5070202;28;20518;-74
2022/05/13 04:55:40;;;;;;;2.25;1.10;;;18.80;55.90;;;;;;5069822;28;20062;-73
2022/05/13 04:58:07;;;;;;;1.48;1.00;;;18.90;55.50;;;;;;5069781;28;20064;-72
2022/05/13 05:00:35;;;;;;;1.15;0.90;;;18.60;55.50;;;;;;5069874;28;20049;-73
2022/05/13 05:03:02;;;;;;;3.60;1.13;;;17.90;55.20;;;;;;5090156;28;20131;-72
2022/05/13 05:05:29;;;;;;;1.73;1.02;;;19.30;55.80;;;;;;5090039;28;20073;-73
2022/05/13 05:07:55;;;;;;;3.28;1.30;;;18.60;51.10;;;;;;5124226;27;20055;-73
2022/05/13 05:10:22;;;;;;;2.05;0.88;;;18.50;55.40;;;;;;5089915;28;20413;-73
2022/05/13 05:12:49;;;;;;;2.00;1.00;;;19.20;57.70;;;;;;5125694;27;20134;-73
2022/05/13 05:15:16;;;;;;;3.80;1.10;;;19.30;56.10;;;;;;5093470;28;20052;-73
2022/05/13 05:17:44;;;;;;;3.45;1.10;;;18.70;55.60;;;;;;5091835;28;20510;-73
2022/05/13 05:20:11;;;;;;;1.60;1.10;;;19.80;57.30;;;;;;5092756;28;20059;-73
2022/05/13 05:22:38;;;;;;;1.70;1.00;;;18.50;55.60;;;;;;5093617;28;20062;-73
2022/05/13 05:25:06;;;;;;;1.67;1.00;;;19.10;55.90;;;;;;5092605;28;20056;-73
2022/05/13 05:27:37;;;;;;;2.20;1.05;;;18.60;55.70;;;;;;5126338;27;20051;-73
2022/05/13 05:30:20;;;;;;;2.15;0.90;;;18.60;51.10;;;;;;5092117;28;20044;-71
2022/05/13 05:32:48;;;;;;;2.33;1.10;;;18.60;51.10;;;;;;5093461;28;20408;-71
2022/05/13 05:35:16;;;;;;;1.48;0.90;;;18.60;55.40;;;;;;5074580;28;20055;-72
2022/05/13 05:37:43;;;;;;;2.33;0.85;;;18.60;55.40;;;;;;5090908;28;20381;-74
2022/05/13 05:40:11;;;;;;;2.03;1.17;;;18.60;51.10;;;;;;5092518;28;20664;-74
2022/05/13 05:42:38;;;;;;;1.13;0.80;;;18.60;56.20;;;;;;5093391;28;20054;-74
2022/05/13 05:45:05;;;;;;;2.55;1.20;;;18.80;55.50;;;;;;5093409;28;20105;-75
2022/05/13 05:47:32;;;;;;;1.70;0.95;;;18.10;55.00;;;;;;5093137;28;20051;-75
2022/05/13 05:50:00;;;;;;;1.30;1.00;;;18.70;51.10;;;;;;5084291;28;20044;-74
2022/05/13 05:52:27;;;;;;;2.22;1.17;;;18.80;51.10;;;;;;5073144;28;20059;-72
2022/05/13 05:57:38;;;;;;;2.78;1.20;;;18.90;55.40;;;;;;5106799;28;20139;-71
2022/05/13 06:00:05;;;;;;;1.60;0.95;;;18.80;51.00;;;;;;5073757;28;20406;-71
2022/05/13 06:02:33;;;;;;;1.95;1.20;;;18.90;51.00;;;;;;5072552;28;20447;-71
2022/05/13 06:05:01;;;;;;;3.50;1.02;;;18.90;54.90;;;;;;5072550;28;20055;-71
2022/05/13 06:07:27;;;;;;;2.35;1.10;;;18.70;55.10;;;;;;5073684;28;20056;-71
2022/05/13 06:09:54;;;;;;;1.98;1.08;;;19.70;55.80;;;;;;5072166;28;20477;-71
2022/05/13 06:12:21;;;;;;;1.00;0.90;;;19.00;50.80;;;;;;5072689;28;20443;-72
2022/05/13 06:14:48;;;;;;;1.40;1.00;;;19.10;50.80;;;;;;5072300;28;20052;-71
2022/05/13 06:17:14;;;;;;;2.30;1.10;;;18.20;55.90;;;;;;5072783;28;20056;-71
2022/05/13 06:19:41;;;;;;;0.95;0.80;;;19.20;54.90;;;;;;5094102;28;20052;-71
2022/05/13 06:22:09;;;;;;;2.42;0.98;;;19.10;50.70;;;;;;5090888;28;20070;-71
2022/05/13 06:24:36;;;;;;;4.05;1.20;;;19.20;50.70;;;;;;5091845;28;20080;-70
2022/05/13 06:27:02;;;;;;;3.40;1.20;;;19.30;55.20;;;;;;5092580;28;20139;-70
2022/05/13 06:29:30;;;;;;;2.97;1.35;;;19.50;55.40;;;;;;5125963;27;20431;-71
2022/05/13 06:31:59;;;;;;;2.95;1.30;;;19.50;55.20;;;;;;5092188;28;20062;-70
2022/05/13 06:34:25;;;;;;;2.50;1.30;;;19.40;50.60;;;;;;5092238;28;20097;-72
2022/05/13 06:36:52;;;;;;;2.50;1.40;;;20.10;55.80;;;;;;5092105;28;20055;-72
2022/05/13 06:39:20;;;;;;;3.00;1.20;;;19.70;56.00;;;;;;5087348;28;20048;-72
2022/05/13 06:41:47;;;;;;;2.92;1.50;;;19.30;54.70;;;;;;5071439;28;20052;-72
2022/05/13 06:44:15;;;;;;;5.22;1.60;;;19.60;54.90;;;;;;5071937;28;20528;-72
2022/05/13 06:46:42;;;;;;;3.40;1.60;;;19.50;50.40;;;;;;5092856;28;20082;-72
2022/05/13 06:49:10;;;;;;;2.42;1.20;;;19.60;50.40;;;;;;5091068;28;20382;-72
2022/05/13 06:51:36;;;;;;;4.28;1.30;;;19.50;54.70;;;;;;5091695;28;20491;-72
2022/05/13 06:54:06;;;;;;;2.95;1.20;;;19.50;54.30;;;;;;5091863;28;20137;-71
2022/05/13 06:56:35;;;;;;;3.83;1.70;;;19.70;54.40;;;;;;5107242;27;20053;-71
2022/05/13 06:59:02;;;;;;;3.92;1.58;;;19.80;54.90;;;;;;5072349;28;20409;-71
2022/05/13 07:01:29;;;;;;;3.28;1.52;;;19.60;54.70;;;;;;5092095;28;20071;-71
2022/05/13 07:03:55;;;;;;;2.95;1.30;;;20.90;56.80;;;;;;5101523;28;20488;-71
2022/05/13 07:06:22;;;;;;;3.50;1.30;;;19.60;50.30;;;;;;5101373;28;20040;-71
2022/05/13 07:08:50;;;;;;;2.30;1.27;;;19.70;54.20;;;;;;5101339;28;20101;-71
2022/05/13 07:11:17;;;;;;;2.75;1.42;;;19.80;55.10;;;;;;5095713;28;20058;-72
2022/05/13 07:13:45;;;;;;;4.72;1.50;;;19.70;55.00;;;;;;5091002;28;20060;-71
2022/05/13 07:16:11;;;;;;;3.88;1.33;;;19.70;54.90;;;;;;5091729;28;20051;-71
2022/05/13 07:18:39;;;;;;;2.63;1.35;;;19.70;50.20;;;;;;5091433;28;20074;-71
2022/05/13 07:21:05;;;;;;;2.30;1.20;;;19.80;54.90;;;;;;5090198;28;20056;-71
2022/05/13 07:23:32;;;;;;;2.25;1.17;;;19.70;50.20;;;;;;5091365;28;20122;-71
2022/05/13 07:25:59;;;;;;;1.45;1.10;;;19.40;54.50;;;;;;5091169;28;20127;-71
2022/05/13 07:28:26;;;;;;;3.35;1.30;;;19.70;54.80;;;;;;5100078;28;20057;-70
2022/05/13 07:30:54;;;;;;;3.15;1.15;;;19.50;54.70;;;;;;5111226;28;20373;-72
2022/05/13 07:33:22;;;;;;;4.00;1.50;;;19.70;50.20;;;;;;5111606;28;20055;-71
2022/05/13 07:35:49;;;;;;;2.17;1.15;;;19.70;50.20;;;;;;5089735;28;20397;-71
2022/05/13 07:38:16;;;;;;;2.72;1.23;;;19.80;54.50;;;;;;5091116;28;20052;-71
2022/05/13 07:43:28;;;;;;;2.35;1.27;;;19.70;50.10;;;;;;5088763;28;20044;-71
2022/05/13 07:45:56;;;;;;;2.20;1.17;;;19.70;55.00;;;;;;5125309;27;20052;-71
2022/05/13 07:48:22;;;;;;;2.15;1.13;;;19.70;54.90;;;;;;5091668;28;20047;-71
2022/05/13 07:50:50;;;;;;;3.80;1.30;;;19.70;50.20;;;;;;5090026;28;20054;-71
2022/05/13 07:53:16;;;;;;;3.08;1.40;;;19.90;54.20;;;;;;5090800;28;20135;-71
2022/05/13 07:55:43;;;;;;;3.38;1.63;;;19.50;55.70;;;;;;5090349;28;20050;-71
2022/05/13 07:58:10;;;;;;;4.65;1.45;;;19.60;50.10;;;;;;5083499;28;20063;-72
2022/05/13 08:00:38;;;;;;;2.88;1.30;;;19.30;54.00;;;;;;5070605;28;20404;-70
2022/05/13 08:03:07;;;;;;;3.30;1.40;;;19.60;54.60;;;;;;5070639;28;20048;-70
2022/05/13 08:05:36;;;;;;;3.78;1.50;;;19.60;55.00;;;;;;5070728;28;20052;-68
2022/05/13 08:08:05;;;;;;;3.20;1.40;;;19.70;50.10;;;;;;5082900;28;20245;-69
2022/05/13 08:10:32;;;;;;;5.05;1.60;;;19.70;50.20;;;;;;5098922;28;20048;-69
2022/05/13 08:12:58;;;;;;;4.20;1.55;;;20.20;55.30;;;;;;5099997;28;20077;-69
2022/05/13 08:15:25;;;;;;;2.70;1.48;;;20.80;55.60;;;;;;5102187;28;20046;-69
2022/05/13 08:17:52;;;;;;;3.70;1.42;;;20.10;54.00;;;;;;5099146;28;20048;-69
2022/05/13 08:20:20;;;;;;;4.15;1.38;;;20.00;50.00;;;;;;5100398;28;20047;-70
2022/05/13 08:22:47;;;;;;;3.38;1.50;;;20.10;49.90;;;;;;5099346;28;20051;-70
2022/05/13 08:25:13;;;;;;;3.00;1.63;;;20.20;54.80;;;;;;5097893;28;20048;-69
2022/05/13 08:27:40;;;;;;;6.55;1.48;;;20.80;54.50;;;;;;5098573;28;20523;-69
2022/05/13 08:30:09;;;;;;;3.92;1.70;;;20.20;49.90;;;;;;5088994;28;20048;-70
2022/05/13 08:32:35;;;;;;;3.55;1.52;;;20.20;49.70;;;;;;5124700;28;20474;-70
2022/05/13 08:35:02;;;;;;;5.10;1.50;;;20.20;49.70;;;;;;5090266;28;20050;-70
2022/05/13 08:37:30;;;;;;;2.55;1.30;;;20.20;53.50;;;;;;5090452;28;20392;-70
2022/05/13 08:39:59;;;;;;;2.85;1.40;;;20.30;49.60;;;;;;5089965;28;20048;-70
2022/05/13 08:42:35;;;;;;;3.00;1.20;;;20.30;54.00;;;;;;5090448;28;20070;-69
2022/05/13 08:45:01;;;;;;;2.83;1.40;;;20.20;54.10;;;;;;5090561;28;20093;-70
2022/05/13 08:47:32;;;;;;;4.38;1.60;;;19.90;53.40;;;;;;5093012;28;20058;-70
2022/05/13 08:50:02;;;;;;;4.10;1.30;;;20.70;55.80;;;;;;5093969;28;20083;-69
2022/05/13 08:55:23;;;;;;;2.60;1.25;;;20.20;49.60;;;;;;5101411;28;20040;-69
2022/05/13 08:57:51;;;;;;;2.90;1.20;;;20.10;54.20;;;;;;5100730;28;20055;-69
2022/05/13 09:00:20;;;;;;;2.25;1.40;;;20.10;49.60;;;;;;5096298;28;20048;-70
2022/05/13 09:02:50;;;;;;;2.80;1.25;;;20.00;53.40;;;;;;5093930;28;20467;-70
2022/05/13 09:05:21;;;;;;;3.15;1.65;;;20.10;54.50;;;;;;5094060;28;20489;-70
2022/05/13 09:07:51;;;;;;;4.80;1.50;;;19.60;53.60;;;;;;5088315;28;20051;-70
2022/05/13 09:10:17;;;;;;;3.20;1.10;;;20.00;49.60;;;;;;5084110;28;20101;-71
2022/05/13 09:12:47;;;;;;;3.13;1.45;;;20.20;54.10;;;;;;5107397;28;20097;-72
2022/05/13 09:15:15;;;;;;;7.65;1.60;;;20.00;49.60;;;;;;5073394;28;20103;-72
2022/05/13 09:17:49;;;;;;;6.15;1.35;;;20.20;53.40;;;;;;5073422;28;20052;-72
2022/05/13 09:20:17;;;;;;;18.73;1.90;;;20.00;49.70;;;;;;5072959;28;20052;-72
2022/05/13 09:22:44;;;;;;;7.28;1.33;;;19.80;53.70;;;;;;5076500;28;20476;-71
2022/05/13 09:25:16;;;;;;;6.18;1.83;;;20.00;53.80;;;;;;5077857;28;20053;-71
2022/05/13 09:27:45;;;;;;;3.03;1.20;;;19.70;54.20;;;;;;5073356;28;20056;-71
2022/05/13 09:30:12;;;;;;;4.10;1.30;;;19.80;55.20;;;;;;5073007;28;20070;-71
2022/05/13 09:32:39;;;;;;;3.88;1.30;;;19.90;49.70;;;;;;5083315;28;20054;-71
2022/05/13 09:35:10;;;;;;;7.65;1.50;;;19.90;55.40;;;;;;5092076;28;20434;-71
2022/05/13 09:37:38;;;;;;;10.88;2.20;;;20.00;49.80;;;;;;5131732;27;20044;-72
2022/05/13 09:40:09;;;;;;;5.38;1.17;;;19.90;54.80;;;;;;5094777;28;20488;-74
2022/05/13 09:42:38;;;;;;;3.50;1.38;;;20.00;53.80;;;;;;5072675;28;20471;-71
2022/05/13 09:45:17;;;;;;;5.57;1.30;;;20.10;53.80;;;;;;5072030;28;20404;-72
2022/05/13 09:47:45;;;;;;;6.05;1.20;;;20.00;55.00;;;;;;5075846;28;20045;-74
2022/05/13 09:50:20;;;;;;;4.95;1.05;;;19.50;53.50;;;;;;5075074;28;20238;-74
2022/05/13 09:52:47;;;;;;;2.03;1.10;;;20.00;49.80;;;;;;5073886;28;20059;-75
2022/05/13 09:55:16;;;;;;;4.68;1.15;;;21.20;55.80;;;;;;5077398;28;20043;-75
2022/05/13 09:57:44;;;;;;;5.65;1.40;;;20.00;49.80;;;;;;5092588;28;20127;-75
2022/05/13 10:00:15;;;;;;;14.73;2.00;;;20.40;50.40;;;;;;5093707;28;20059;-75
2022/05/13 10:02:42;;;;;;;14.10;2.30;;;20.10;49.90;;;;;;5127995;27;20070;-74
2022/05/13 10:05:15;;;;;;;23.05;2.85;;;20.10;49.90;;;;;;5094036;28;20583;-74
2022/05/13 10:07:43;;;;;;;32.95;2.35;;;20.10;49.90;;;;;;5093838;28;20052;-75
2022/05/13 10:15:39;;;;;;;;;;;20.10;50.00;;;;;;5122651;27;20310;-74
2022/05/13 10:18:14;;;;;;;20.20;2.20;;;19.80;53.80;;;;;;5127231;27;19920;-74
2022/05/13 10:20:42;;;;;;;18.75;2.53;;;20.10;50.10;;;;;;5093024;28;20135;-74
2022/05/13 10:23:11;;;;;;;20.30;2.22;;;20.10;55.00;;;;;;5093773;28;20048;-74
2022/05/13 10:25:47;;;;;;;12.65;1.92;;;19.90;53.90;;;;;;5093346;28;20497;-74
2022/05/13 10:28:16;;;;;;;12.77;2.00;;;20.90;50.60;;;;;;5091266;28;20116;-74
2022/05/13 10:30:46;;;;;;;14.60;2.53;;;20.10;55.40;;;;;;5096970;28;20047;-74
2022/05/13 10:33:17;;;;;;;16.80;2.00;;;20.30;55.00;;;;;;5098901;28;20056;-73
2022/05/13 10:35:47;;;;;;;10.52;1.80;;;20.10;50.20;;;;;;5101198;28;20047;-74
2022/05/13 10:38:17;;;;;;;9.43;1.58;;;20.10;50.30;;;;;;5123638;27;20056;-73
2022/05/13 10:40:44;;;;;;;9.70;1.50;;;20.10;54.00;;;;;;5091428;28;20123;-73
2022/05/13 10:43:14;;;;;;;7.82;1.92;;;19.80;55.00;;;;;;5125189;27;20054;-74
2022/05/13 10:45:44;;;;;;;11.93;1.48;;;20.10;55.40;;;;;;5102427;28;20570;-74
2022/05/13 10:48:19;;;;;;;6.88;1.48;;;20.10;50.40;;;;;;5101093;28;20059;-74
2022/05/13 10:50:53;;;;;;;5.32;1.40;;;20.10;50.30;;;;;;5100386;28;20047;-74
2022/05/13 10:53:23;;;;;;;5.60;1.47;;;20.00;55.80;;;;;;5103172;28;20051;-74
2022/05/13 10:55:52;;;;;;;7.82;1.40;;;20.30;55.20;;;;;;5110706;28;20845;-74
2022/05/13 10:58:27;;;;;;;5.00;1.45;;;20.10;50.20;;;;;;5091410;28;20090;-73
2022/05/13 11:00:57;;;;;;;8.77;1.42;;;20.10;50.20;;;;;;5083565;28;20052;-74
2022/05/13 11:03:35;;;;;;;6.47;1.30;;;20.20;54.80;;;;;;5091444;28;20131;-74
2022/05/13 11:06:20;;;;;;;6.82;1.25;;;20.00;54.60;;;;;;5091782;28;20051;-74
2022/05/13 11:08:50;;;;;;;5.35;1.33;;;20.60;55.00;;;;;;5091606;28;20126;-74
2022/05/13 11:11:24;;;;;;;4.32;1.67;;;20.30;55.00;;;;;;5091541;28;20495;-74
2022/05/13 11:13:55;;;;;;;5.35;1.48;;;20.10;54.40;;;;;;5091772;28;20056;-74
2022/05/13 11:16:30;;;;;;;4.07;1.25;;;20.00;54.20;;;;;;5082727;28;20511;-73
2022/05/13 11:19:00;;;;;;;;;;;20.10;49.90;;;;;;5125862;27;20131;-74
2022/05/13 11:21:30;;;;;;;5.57;1.50;;;20.10;50.00;;;;;;5092105;28;20019;-73
2022/05/13 11:26:49;;;;;;;5.07;1.30;;;20.10;54.20;;;;;;5095423;28;20036;-74
2022/05/13 11:29:17;;;;;;;4.95;1.60;;;20.20;50.00;;;;;;5098365;28;20136;-74
2022/05/13 11:32:07;;;;;;;5.03;1.30;;;20.20;49.90;;;;;;5099515;28;20134;-74
2022/05/13 11:34:43;;;;;;;2.85;1.17;;;19.70;54.40;;;;;;5099718;28;20058;-74
2022/05/13 11:37:11;;;;;;;5.15;1.63;;;20.20;49.90;;;;;;5098232;28;20048;-74
2022/05/13 11:39:49;;;;;;;4.47;2.03;;;20.20;49.90;;;;;;5102408;28;20052;-74
2022/05/13 11:42:28;;;;;;;2.65;1.23;;;20.20;54.10;;;;;;5099784;28;20109;-74
2022/05/13 11:45:13;;;;;;;5.00;1.50;;;20.20;49.90;;;;;;5108277;28;20055;-74
2022/05/13 11:47:44;;;;;;;5.97;1.67;;;20.10;49.80;;;;;;5102303;28;20404;-73
2022/05/13 11:50:11;;;;;;;3.90;1.25;;;19.60;55.00;;;;;;5104411;28;20052;-74
2022/05/13 11:52:48;;;;;;;4.43;1.58;;;20.10;49.80;;;;;;5070515;28;20060;-74
2022/05/13 11:55:20;;;;;;;11.55;5.07;;;20.10;55.10;;;;;;5070395;28;20052;-74
2022/05/13 11:57:48;;;;;;;18.02;8.48;;;20.20;55.50;;;;;;5104593;28;20053;-74
2022/05/13 12:00:37;;;;;;;19.90;7.32;;;20.20;50.10;;;;;;5070289;28;20058;-74
2022/05/13 12:03:14;;;;;;;14.32;8.00;;;20.20;50.10;;;;;;5088942;28;20059;-74
2022/05/13 12:05:55;;;;;;;18.48;8.40;;;20.30;54.50;;;;;;5124851;28;20051;-74
2022/05/13 12:08:23;;;;;;;25.92;8.48;;;20.20;50.30;;;;;;5090332;28;20062;-73
2022/05/13 12:10:56;;;;;;;15.73;7.80;;;20.20;50.40;;;;;;5125069;28;20052;-74
2022/05/13 12:13:32;;;;;;;16.90;7.15;;;20.20;50.40;;;;;;5091052;28;20055;-74
2022/05/13 12:16:08;;;;;;;20.52;8.30;;;20.40;51.50;;;;;;5090885;28;20044;-75
2022/05/13 12:18:39;;;;;;;14.73;6.10;;;20.40;54.70;;;;;;5073161;28;20475;-75
2022/05/13 12:21:12;;;;;;;13.77;5.75;;;20.30;50.30;;;;;;5071025;28;20552;-74
2022/05/13 12:23:41;;;;;;;13.88;6.18;;;20.40;54.40;;;;;;5074705;28;20079;-73
2022/05/13 12:26:13;;;;;;;12.70;6.32;;;20.30;50.30;;;;;;5074900;28;20048;-75
2022/05/13 12:29:02;;;;;;;12.75;5.57;;;20.50;56.10;;;;;;5075095;28;20057;-74
2022/05/13 12:31:45;;;;;;;8.43;4.60;;;20.40;50.40;;;;;;5108277;28;20052;-74
2022/05/13 12:39:56;;;;;;;10.98;4.68;;;19.60;53.80;;;;;;5128488;27;20044;-75
2022/05/13 12:42:37;;;;;;;12.70;4.43;;;20.30;54.50;;;;;;5094590;28;20131;-73
2022/05/13 12:45:05;;;;;;;10.68;4.55;;;20.60;54.30;;;;;;5095221;28;20087;-74
2022/05/13 12:47:32;;;;;;;9.38;4.82;;;20.30;54.40;;;;;;5128892;27;20048;-74
2022/05/13 12:50:19;;;;;;;10.85;4.30;;;20.60;54.30;;;;;;5090680;28;20059;-74
2022/05/13 12:52:45;;;;;;;12.27;4.35;;;20.50;50.10;;;;;;5091584;28;20067;-74
2022/05/13 12:55:18;;;;;;;8.40;3.83;;;20.50;54.30;;;;;;5108408;28;20055;-74
2022/05/13 12:57:47;;;;;;;16.45;4.30;;;20.30;55.10;;;;;;5074167;28;20060;-74
2022/05/13 13:00:16;;;;;;;12.93;4.00;;;20.50;50.10;;;;;;5074499;28;20067;-75
2022/05/13 13:02:43;;;;;;;17.08;3.90;;;19.50;55.20;;;;;;5074298;28;20092;-75
2022/05/13 13:05:15;;;;;;;11.63;3.67;;;20.60;54.50;;;;;;5078411;28;20056;-74
2022/05/13 13:07:42;;;;;;;13.55;3.75;;;20.50;50.20;;;;;;5125951;27;20044;-74
2022/05/13 13:10:10;;;;;;;11.45;4.10;;;20.00;54.30;;;;;;5094084;28;20056;-74
2022/05/13 13:12:41;;;;;;;11.82;3.35;;;20.60;56.20;;;;;;5037088;28;20067;-71
2022/05/13 13:15:12;;;;;;;7.10;3.00;;;18.40;56.30;;;;;;4594138;28;20359;-71
2022/05/13 13:17:41;;;;;;;7.88;3.20;;;18.30;55.90;;;;;;4590563;28;20102;-71
2022/05/13 13:20:09;;;;;;;9.80;3.33;;;20.50;55.30;;;;;;4711549;28;20048;-74
2022/05/13 13:22:41;;;;;;;7.00;2.90;;;20.40;49.90;;;;;;5096093;28;20058;-74
2022/05/13 13:25:21;;;;;;;7.05;3.15;;;20.10;53.60;;;;;;5093058;28;20047;-74